sensor_id;sensor_type;location;lat;lon;timestamp;P1;durP1;ratioP1;P2;durP2;ratioP2
6527;SDS011;64597;42.664;23.256;2023-06-14T00:01:49;10.50;;;5.10;;
6527;SDS011;64597;42.664;23.256;2023-06-14T00:04:14;8.07;;;4.07;;
6527;SDS011;64597;42.664;23.256;2023-06-14T00:06:44;8.20;;;4.10;;
6527;SDS011;64597;42.664;23.256;2023-06-14T00:09:10;6.82;;;4.50;;
6527;SDS011;64597;42.664;23.256;2023-06-14T00:11:38;6.72;;;4.57;;
6527;SDS011;64597;42.664;23.256;2023-06-14T00:14:04;6.20;;;3.95;;
6527;SDS011;64597;42.664;23.256;2023-06-14T00:16:30;8.05;;;4.65;;
6527;SDS011;64597;42.664;23.256;2023-06-14T00:18:57;9.02;;;4.53;;
6527;SDS011;64597;42.664;23.256;2023-06-14T00:21:23;7.55;;;4.40;;
6527;SDS011;64597;42.664;23.256;2023-06-14T00:23:48;9.35;;;4.85;;
6527;SDS011;64597;42.664;23.256;2023-06-14T00:26:14;10.02;;;4.50;;
6527;SDS011;64597;42.664;23.256;2023-06-14T00:28:39;8.50;;;4.28;;
6527;SDS011;64597;42.664;23.256;2023-06-14T00:31:06;8.93;;;4.75;;
6527;SDS011;64597;42.664;23.256;2023-06-14T00:33:31;8.63;;;4.30;;
6527;SDS011;64597;42.664;23.256;2023-06-14T00:35:56;9.70;;;4.60;;
6527;SDS011;64597;42.664;23.256;2023-06-14T00:38:22;10.18;;;4.40;;
6527;SDS011;64597;42.664;23.256;2023-06-14T00:40:47;9.55;;;5.05;;
6527;SDS011;64597;42.664;23.256;2023-06-14T00:43:13;7.85;;;5.05;;
6527;SDS011;64597;42.664;23.256;2023-06-14T00:45:38;8.40;;;4.90;;
6527;SDS011;64597;42.664;23.256;2023-06-14T00:48:04;8.93;;;4.10;;
6527;SDS011;64597;42.664;23.256;2023-06-14T00:52:58;9.55;;;4.32;;
6527;SDS011;64597;42.664;23.256;2023-06-14T00:55:25;10.73;;;4.35;;
6527;SDS011;64597;42.664;23.256;2023-06-14T00:57:51;7.03;;;4.55;;
6527;SDS011;64597;42.664;23.256;2023-06-14T01:00:17;5.63;;;3.78;;
6527;SDS011;64597;42.664;23.256;2023-06-14T01:02:43;7.63;;;4.60;;
6527;SDS011;64597;42.664;23.256;2023-06-14T01:05:08;9.25;;;4.50;;
6527;SDS011;64597;42.664;23.256;2023-06-14T01:17:51;7.82;;;4.55;;
6527;SDS011;64597;42.664;23.256;2023-06-14T01:20:21;8.63;;;4.93;;
6527;SDS011;64597;42.664;23.256;2023-06-14T01:22:51;10.13;;;4.88;;
6527;SDS011;64597;42.664;23.256;2023-06-14T01:25:18;12.95;;;5.35;;
6527;SDS011;64597;42.664;23.256;2023-06-14T01:27:58;10.35;;;5.32;;
6527;SDS011;64597;42.664;23.256;2023-06-14T01:30:26;9.27;;;4.50;;
6527;SDS011;64597;42.664;23.256;2023-06-14T01:32:53;8.95;;;4.68;;
6527;SDS011;64597;42.664;23.256;2023-06-14T01:35:21;9.18;;;4.85;;
6527;SDS011;64597;42.664;23.256;2023-06-14T01:37:47;9.85;;;4.90;;
6527;SDS011;64597;42.664;23.256;2023-06-14T01:40:14;10.65;;;4.88;;
6527;SDS011;64597;42.664;23.256;2023-06-14T01:42:40;9.50;;;4.60;;
6527;SDS011;64597;42.664;23.256;2023-06-14T01:45:07;10.25;;;4.78;;
6527;SDS011;64597;42.664;23.256;2023-06-14T01:47:34;8.63;;;4.65;;
6527;SDS011;64597;42.664;23.256;2023-06-14T01:50:01;16.73;;;4.85;;
6527;SDS011;64597;42.664;23.256;2023-06-14T01:52:30;8.75;;;5.13;;
6527;SDS011;64597;42.664;23.256;2023-06-14T01:54:55;9.70;;;4.65;;
6527;SDS011;64597;42.664;23.256;2023-06-14T01:57:21;12.23;;;5.03;;
6527;SDS011;64597;42.664;23.256;2023-06-14T01:59:47;10.00;;;4.55;;
6527;SDS011;64597;42.664;23.256;2023-06-14T02:02:13;13.00;;;4.93;;
6527;SDS011;64597;42.664;23.256;2023-06-14T02:04:40;13.38;;;5.22;;
6527;SDS011;64597;42.664;23.256;2023-06-14T02:07:05;8.52;;;5.50;;
6527;SDS011;64597;42.664;23.256;2023-06-14T02:09:31;9.30;;;4.57;;
6527;SDS011;64597;42.664;23.256;2023-06-14T02:11:56;10.68;;;4.70;;
6527;SDS011;64597;42.664;23.256;2023-06-14T02:14:22;8.70;;;4.53;;
6527;SDS011;64597;42.664;23.256;2023-06-14T02:16:48;9.90;;;4.10;;
6527;SDS011;64597;42.664;23.256;2023-06-14T02:19:17;6.20;;;3.92;;
6527;SDS011;64597;42.664;23.256;2023-06-14T02:21:43;6.00;;;2.88;;
6527;SDS011;64597;42.664;23.256;2023-06-14T02:24:09;4.78;;;3.55;;
6527;SDS011;64597;42.664;23.256;2023-06-14T02:26:35;5.65;;;3.10;;
6527;SDS011;64597;42.664;23.256;2023-06-14T02:29:03;5.90;;;3.08;;
6527;SDS011;64597;42.664;23.256;2023-06-14T02:31:30;5.90;;;2.75;;
6527;SDS011;64597;42.664;23.256;2023-06-14T02:33:56;4.45;;;2.92;;
6527;SDS011;64597;42.664;23.256;2023-06-14T02:36:21;6.55;;;3.30;;
6527;SDS011;64597;42.664;23.256;2023-06-14T02:38:46;7.13;;;2.83;;
6527;SDS011;64597;42.664;23.256;2023-06-14T02:41:12;5.95;;;2.67;;
6527;SDS011;64597;42.664;23.256;2023-06-14T02:43:38;4.03;;;2.90;;
6527;SDS011;64597;42.664;23.256;2023-06-14T02:46:04;5.22;;;3.05;;
6527;SDS011;64597;42.664;23.256;2023-06-14T02:48:30;5.65;;;3.08;;
6527;SDS011;64597;42.664;23.256;2023-06-14T02:50:55;5.38;;;2.95;;
6527;SDS011;64597;42.664;23.256;2023-06-14T02:53:21;3.50;;;2.55;;
6527;SDS011;64597;42.664;23.256;2023-06-14T02:55:47;5.82;;;3.13;;
6527;SDS011;64597;42.664;23.256;2023-06-14T02:58:13;6.13;;;2.95;;
6527;SDS011;64597;42.664;23.256;2023-06-14T03:00:39;6.90;;;3.03;;
6527;SDS011;64597;42.664;23.256;2023-06-14T03:03:06;4.03;;;2.50;;
6527;SDS011;64597;42.664;23.256;2023-06-14T03:05:38;3.92;;;2.60;;
6527;SDS011;64597;42.664;23.256;2023-06-14T03:08:11;5.68;;;2.75;;
6527;SDS011;64597;42.664;23.256;2023-06-14T03:10:42;3.42;;;2.30;;
6527;SDS011;64597;42.664;23.256;2023-06-14T03:13:08;7.03;;;2.90;;
6527;SDS011;64597;42.664;23.256;2023-06-14T03:15:35;4.57;;;2.90;;
6527;SDS011;64597;42.664;23.256;2023-06-14T03:18:01;3.38;;;2.63;;
6527;SDS011;64597;42.664;23.256;2023-06-14T03:20:26;4.55;;;2.83;;
6527;SDS011;64597;42.664;23.256;2023-06-14T03:22:54;6.43;;;2.83;;
6527;SDS011;64597;42.664;23.256;2023-06-14T03:25:19;5.22;;;2.78;;
6527;SDS011;64597;42.664;23.256;2023-06-14T03:27:46;3.80;;;2.45;;
6527;SDS011;64597;42.664;23.256;2023-06-14T03:30:12;3.90;;;2.85;;
6527;SDS011;64597;42.664;23.256;2023-06-14T03:32:38;5.75;;;2.92;;
6527;SDS011;64597;42.664;23.256;2023-06-14T03:35:04;5.00;;;2.97;;
6527;SDS011;64597;42.664;23.256;2023-06-14T03:37:30;7.18;;;2.95;;
6527;SDS011;64597;42.664;23.256;2023-06-14T03:39:56;5.47;;;3.45;;
6527;SDS011;64597;42.664;23.256;2023-06-14T03:42:21;4.63;;;2.90;;
6527;SDS011;64597;42.664;23.256;2023-06-14T03:44:47;4.82;;;2.88;;
6527;SDS011;64597;42.664;23.256;2023-06-14T03:47:12;3.70;;;2.70;;
6527;SDS011;64597;42.664;23.256;2023-06-14T03:49:38;5.13;;;3.00;;
6527;SDS011;64597;42.664;23.256;2023-06-14T03:52:03;4.72;;;3.03;;
6527;SDS011;64597;42.664;23.256;2023-06-14T03:54:29;5.60;;;3.72;;
6527;SDS011;64597;42.664;23.256;2023-06-14T03:59:23;7.97;;;3.00;;
6527;SDS011;64597;42.664;23.256;2023-06-14T04:01:48;4.80;;;3.08;;
6527;SDS011;64597;42.664;23.256;2023-06-14T04:04:14;4.65;;;3.08;;
6527;SDS011;64597;42.664;23.256;2023-06-14T04:06:41;5.70;;;3.30;;
6527;SDS011;64597;42.664;23.256;2023-06-14T04:09:08;4.30;;;2.88;;
6527;SDS011;64597;42.664;23.256;2023-06-14T04:11:33;6.63;;;3.70;;
6527;SDS011;64597;42.664;23.256;2023-06-14T04:13:59;4.55;;;3.13;;
6527;SDS011;64597;42.664;23.256;2023-06-14T04:16:25;5.40;;;3.00;;
6527;SDS011;64597;42.664;23.256;2023-06-14T04:18:51;4.40;;;2.88;;
6527;SDS011;64597;42.664;23.256;2023-06-14T04:21:17;8.30;;;3.80;;
6527;SDS011;64597;42.664;23.256;2023-06-14T04:23:43;6.90;;;3.22;;
6527;SDS011;64597;42.664;23.256;2023-06-14T04:26:09;8.57;;;3.70;;
6527;SDS011;64597;42.664;23.256;2023-06-14T04:28:35;7.88;;;4.07;;
6527;SDS011;64597;42.664;23.256;2023-06-14T04:31:05;5.45;;;3.28;;
6527;SDS011;64597;42.664;23.256;2023-06-14T04:33:33;4.78;;;2.90;;
6527;SDS011;64597;42.664;23.256;2023-06-14T04:36:11;7.00;;;3.80;;
6527;SDS011;64597;42.664;23.256;2023-06-14T04:38:38;7.93;;;4.47;;
6527;SDS011;64597;42.664;23.256;2023-06-14T04:41:04;6.82;;;4.50;;
6527;SDS011;64597;42.664;23.256;2023-06-14T04:43:31;7.22;;;3.65;;
6527;SDS011;64597;42.664;23.256;2023-06-14T04:46:06;9.23;;;4.03;;
6527;SDS011;64597;42.664;23.256;2023-06-14T04:48:36;10.98;;;4.90;;
6527;SDS011;64597;42.664;23.256;2023-06-14T04:51:02;8.32;;;5.18;;
6527;SDS011;64597;42.664;23.256;2023-06-14T04:53:29;9.43;;;5.28;;
6527;SDS011;64597;42.664;23.256;2023-06-14T04:55:54;6.40;;;4.38;;
6527;SDS011;64597;42.664;23.256;2023-06-14T04:58:20;8.20;;;4.75;;
6527;SDS011;64597;42.664;23.256;2023-06-14T05:00:46;9.10;;;4.53;;
6527;SDS011;64597;42.664;23.256;2023-06-14T05:03:11;9.05;;;4.93;;
6527;SDS011;64597;42.664;23.256;2023-06-14T05:05:38;7.00;;;4.18;;
6527;SDS011;64597;42.664;23.256;2023-06-14T05:08:05;7.20;;;4.65;;
6527;SDS011;64597;42.664;23.256;2023-06-14T05:10:31;8.77;;;5.15;;
6527;SDS011;64597;42.664;23.256;2023-06-14T05:12:56;8.85;;;4.72;;
6527;SDS011;64597;42.664;23.256;2023-06-14T05:15:22;7.47;;;4.13;;
6527;SDS011;64597;42.664;23.256;2023-06-14T05:17:50;6.63;;;4.57;;
6527;SDS011;64597;42.664;23.256;2023-06-14T05:20:20;10.82;;;5.45;;
6527;SDS011;64597;42.664;23.256;2023-06-14T05:22:48;7.20;;;4.55;;
6527;SDS011;64597;42.664;23.256;2023-06-14T05:25:15;10.95;;;3.33;;
6527;SDS011;64597;42.664;23.256;2023-06-14T05:27:40;7.97;;;4.32;;
6527;SDS011;64597;42.664;23.256;2023-06-14T05:30:07;7.90;;;4.45;;
6527;SDS011;64597;42.664;23.256;2023-06-14T05:32:33;6.18;;;4.38;;
6527;SDS011;64597;42.664;23.256;2023-06-14T05:34:59;7.47;;;4.40;;
6527;SDS011;64597;42.664;23.256;2023-06-14T05:37:24;5.47;;;3.92;;
6527;SDS011;64597;42.664;23.256;2023-06-14T05:39:50;7.32;;;3.72;;
6527;SDS011;64597;42.664;23.256;2023-06-14T05:42:15;6.15;;;3.97;;
6527;SDS011;64597;42.664;23.256;2023-06-14T05:44:41;7.00;;;3.72;;
6527;SDS011;64597;42.664;23.256;2023-06-14T05:47:06;6.55;;;3.80;;
6527;SDS011;64597;42.664;23.256;2023-06-14T05:49:31;6.13;;;4.75;;
6527;SDS011;64597;42.664;23.256;2023-06-14T05:51:57;6.68;;;3.65;;
6527;SDS011;64597;42.664;23.256;2023-06-14T05:54:22;5.00;;;3.58;;
6527;SDS011;64597;42.664;23.256;2023-06-14T05:56:48;7.13;;;4.22;;
6527;SDS011;64597;42.664;23.256;2023-06-14T05:59:13;6.85;;;4.28;;
6527;SDS011;64597;42.664;23.256;2023-06-14T06:01:39;7.57;;;4.35;;
6527;SDS011;64597;42.664;23.256;2023-06-14T06:04:05;6.45;;;4.90;;
6527;SDS011;64597;42.664;23.256;2023-06-14T06:06:31;5.22;;;4.35;;
6527;SDS011;64597;42.664;23.256;2023-06-14T06:08:57;7.35;;;4.13;;
6527;SDS011;64597;42.664;23.256;2023-06-14T06:11:23;7.00;;;4.95;;
6527;SDS011;64597;42.664;23.256;2023-06-14T06:13:48;7.72;;;4.72;;
6527;SDS011;64597;42.664;23.256;2023-06-14T06:16:14;9.65;;;4.40;;
6527;SDS011;64597;42.664;23.256;2023-06-14T06:18:40;6.00;;;4.25;;
6527;SDS011;64597;42.664;23.256;2023-06-14T06:21:05;8.18;;;5.40;;
6527;SDS011;64597;42.664;23.256;2023-06-14T06:23:31;7.75;;;5.28;;
6527;SDS011;64597;42.664;23.256;2023-06-14T06:25:57;8.57;;;4.88;;
6527;SDS011;64597;42.664;23.256;2023-06-14T06:28:22;7.00;;;4.60;;
6527;SDS011;64597;42.664;23.256;2023-06-14T06:30:48;7.15;;;4.60;;
6527;SDS011;64597;42.664;23.256;2023-06-14T06:33:13;5.78;;;4.15;;
6527;SDS011;64597;42.664;23.256;2023-06-14T06:35:39;6.47;;;4.40;;
6527;SDS011;64597;42.664;23.256;2023-06-14T06:38:05;6.82;;;4.45;;
6527;SDS011;64597;42.664;23.256;2023-06-14T06:40:30;8.10;;;4.90;;
6527;SDS011;64597;42.664;23.256;2023-06-14T06:42:56;9.32;;;4.45;;
6527;SDS011;64597;42.664;23.256;2023-06-14T06:45:21;7.38;;;5.10;;
6527;SDS011;64597;42.664;23.256;2023-06-14T06:47:51;10.57;;;5.70;;
6527;SDS011;64597;42.664;23.256;2023-06-14T06:50:17;11.98;;;5.55;;
6527;SDS011;64597;42.664;23.256;2023-06-14T06:52:43;6.60;;;4.68;;
6527;SDS011;64597;42.664;23.256;2023-06-14T06:55:10;11.82;;;7.13;;
6527;SDS011;64597;42.664;23.256;2023-06-14T06:57:36;7.85;;;5.00;;
6527;SDS011;64597;42.664;23.256;2023-06-14T07:00:02;8.18;;;5.00;;
6527;SDS011;64597;42.664;23.256;2023-06-14T07:02:31;11.05;;;5.57;;
6527;SDS011;64597;42.664;23.256;2023-06-14T07:04:56;8.07;;;5.05;;
6527;SDS011;64597;42.664;23.256;2023-06-14T07:07:21;7.90;;;6.00;;
6527;SDS011;64597;42.664;23.256;2023-06-14T07:09:47;10.43;;;5.93;;
6527;SDS011;64597;42.664;23.256;2023-06-14T07:12:12;12.50;;;5.63;;
6527;SDS011;64597;42.664;23.256;2023-06-14T07:14:38;12.20;;;5.80;;
6527;SDS011;64597;42.664;23.256;2023-06-14T07:17:03;9.85;;;5.90;;
6527;SDS011;64597;42.664;23.256;2023-06-14T07:19:29;15.18;;;7.25;;
6527;SDS011;64597;42.664;23.256;2023-06-14T07:21:55;11.75;;;6.15;;
6527;SDS011;64597;42.664;23.256;2023-06-14T07:24:21;12.85;;;6.80;;
6527;SDS011;64597;42.664;23.256;2023-06-14T07:26:46;10.00;;;6.38;;
6527;SDS011;64597;42.664;23.256;2023-06-14T07:29:13;16.60;;;7.03;;
6527;SDS011;64597;42.664;23.256;2023-06-14T07:31:39;9.75;;;6.47;;
6527;SDS011;64597;42.664;23.256;2023-06-14T07:34:04;8.82;;;6.55;;
6527;SDS011;64597;42.664;23.256;2023-06-14T07:36:30;13.65;;;6.78;;
6527;SDS011;64597;42.664;23.256;2023-06-14T07:38:55;11.93;;;6.07;;
6527;SDS011;64597;42.664;23.256;2023-06-14T07:41:20;10.38;;;6.07;;
6527;SDS011;64597;42.664;23.256;2023-06-14T07:43:46;11.77;;;6.78;;
6527;SDS011;64597;42.664;23.256;2023-06-14T07:46:12;9.23;;;5.93;;
6527;SDS011;64597;42.664;23.256;2023-06-14T07:48:37;9.98;;;6.15;;
6527;SDS011;64597;42.664;23.256;2023-06-14T07:51:03;9.02;;;5.80;;
6527;SDS011;64597;42.664;23.256;2023-06-14T07:53:29;9.80;;;6.57;;
6527;SDS011;64597;42.664;23.256;2023-06-14T07:55:55;9.90;;;6.40;;
6527;SDS011;64597;42.664;23.256;2023-06-14T07:58:21;12.23;;;7.30;;
6527;SDS011;64597;42.664;23.256;2023-06-14T08:00:47;14.70;;;7.25;;
6527;SDS011;64597;42.664;23.256;2023-06-14T08:03:12;10.45;;;6.25;;
6527;SDS011;64597;42.664;23.256;2023-06-14T08:05:37;11.85;;;6.82;;
6527;SDS011;64597;42.664;23.256;2023-06-14T08:08:03;10.15;;;6.47;;
6527;SDS011;64597;42.664;23.256;2023-06-14T08:10:29;20.60;;;7.28;;
6527;SDS011;64597;42.664;23.256;2023-06-14T08:12:54;11.68;;;5.50;;
6527;SDS011;64597;42.664;23.256;2023-06-14T08:15:20;9.63;;;6.63;;
6527;SDS011;64597;42.664;23.256;2023-06-14T08:17:45;9.85;;;6.32;;
6527;SDS011;64597;42.664;23.256;2023-06-14T08:20:11;10.38;;;7.43;;
6527;SDS011;64597;42.664;23.256;2023-06-14T08:22:38;9.95;;;6.38;;
6527;SDS011;64597;42.664;23.256;2023-06-14T08:25:06;12.13;;;7.03;;
6527;SDS011;64597;42.664;23.256;2023-06-14T08:27:31;12.85;;;6.75;;
6527;SDS011;64597;42.664;23.256;2023-06-14T08:29:57;10.88;;;6.72;;
6527;SDS011;64597;42.664;23.256;2023-06-14T08:32:22;12.45;;;7.25;;
6527;SDS011;64597;42.664;23.256;2023-06-14T08:34:48;10.13;;;6.72;;
6527;SDS011;64597;42.664;23.256;2023-06-14T08:37:13;14.00;;;7.32;;
6527;SDS011;64597;42.664;23.256;2023-06-14T08:39:39;14.45;;;8.50;;
6527;SDS011;64597;42.664;23.256;2023-06-14T08:42:05;12.77;;;7.05;;
6527;SDS011;64597;42.664;23.256;2023-06-14T08:44:32;12.02;;;6.57;;
6527;SDS011;64597;42.664;23.256;2023-06-14T08:46:59;13.50;;;6.20;;
6527;SDS011;64597;42.664;23.256;2023-06-14T08:49:25;8.43;;;5.50;;
6527;SDS011;64597;42.664;23.256;2023-06-14T08:51:58;9.85;;;5.50;;
6527;SDS011;64597;42.664;23.256;2023-06-14T08:54:25;7.75;;;5.32;;
6527;SDS011;64597;42.664;23.256;2023-06-14T08:56:55;9.50;;;6.15;;
6527;SDS011;64597;42.664;23.256;2023-06-14T08:59:27;10.15;;;6.18;;
6527;SDS011;64597;42.664;23.256;2023-06-14T09:01:53;8.40;;;6.15;;
6527;SDS011;64597;42.664;23.256;2023-06-14T09:04:22;11.23;;;7.80;;
6527;SDS011;64597;42.664;23.256;2023-06-14T09:06:50;11.40;;;8.18;;
6527;SDS011;64597;42.664;23.256;2023-06-14T09:09:20;10.75;;;7.25;;
6527;SDS011;64597;42.664;23.256;2023-06-14T09:11:46;14.18;;;7.78;;
6527;SDS011;64597;42.664;23.256;2023-06-14T09:14:12;14.60;;;7.95;;
6527;SDS011;64597;42.664;23.256;2023-06-14T09:16:37;10.60;;;6.60;;
6527;SDS011;64597;42.664;23.256;2023-06-14T09:19:03;11.25;;;6.10;;
6527;SDS011;64597;42.664;23.256;2023-06-14T09:21:28;8.38;;;5.20;;
6527;SDS011;64597;42.664;23.256;2023-06-14T09:23:59;8.05;;;5.43;;
6527;SDS011;64597;42.664;23.256;2023-06-14T09:26:25;9.40;;;6.90;;
6527;SDS011;64597;42.664;23.256;2023-06-14T09:28:52;11.57;;;7.00;;
6527;SDS011;64597;42.664;23.256;2023-06-14T09:31:18;13.00;;;6.95;;
6527;SDS011;64597;42.664;23.256;2023-06-14T09:33:46;9.75;;;7.47;;
6527;SDS011;64597;42.664;23.256;2023-06-14T09:36:17;13.38;;;7.10;;
6527;SDS011;64597;42.664;23.256;2023-06-14T09:38:59;10.15;;;7.28;;
6527;SDS011;64597;42.664;23.256;2023-06-14T09:41:39;10.00;;;7.30;;
6527;SDS011;64597;42.664;23.256;2023-06-14T09:44:07;9.43;;;6.95;;
6527;SDS011;64597;42.664;23.256;2023-06-14T09:46:34;11.82;;;6.90;;
6527;SDS011;64597;42.664;23.256;2023-06-14T09:49:01;12.07;;;7.78;;
6527;SDS011;64597;42.664;23.256;2023-06-14T09:51:27;9.98;;;6.72;;
6527;SDS011;64597;42.664;23.256;2023-06-14T09:54:00;8.50;;;6.63;;
6527;SDS011;64597;42.664;23.256;2023-06-14T09:56:30;9.57;;;6.55;;
6527;SDS011;64597;42.664;23.256;2023-06-14T09:58:59;9.55;;;7.15;;
6527;SDS011;64597;42.664;23.256;2023-06-14T10:01:25;11.98;;;7.43;;
6527;SDS011;64597;42.664;23.256;2023-06-14T10:06:30;9.88;;;7.10;;
6527;SDS011;64597;42.664;23.256;2023-06-14T10:08:57;10.32;;;7.15;;
6527;SDS011;64597;42.664;23.256;2023-06-14T10:11:27;11.70;;;6.85;;
6527;SDS011;64597;42.664;23.256;2023-06-14T10:13:57;12.85;;;6.75;;
6527;SDS011;64597;42.664;23.256;2023-06-14T10:24:15;11.70;;;6.97;;
6527;SDS011;64597;42.664;23.256;2023-06-14T10:26:50;9.32;;;7.13;;
6527;SDS011;64597;42.664;23.256;2023-06-14T10:29:16;14.18;;;8.10;;
6527;SDS011;64597;42.664;23.256;2023-06-14T10:31:43;10.57;;;7.68;;
6527;SDS011;64597;42.664;23.256;2023-06-14T10:34:10;14.00;;;8.02;;
6527;SDS011;64597;42.664;23.256;2023-06-14T10:36:37;9.50;;;7.25;;
6527;SDS011;64597;42.664;23.256;2023-06-14T10:39:07;11.02;;;7.38;;
6527;SDS011;64597;42.664;23.256;2023-06-14T10:41:40;12.23;;;7.78;;
6527;SDS011;64597;42.664;23.256;2023-06-14T10:46:37;12.35;;;7.50;;
6527;SDS011;64597;42.664;23.256;2023-06-14T10:49:05;10.05;;;7.03;;
6527;SDS011;64597;42.664;23.256;2023-06-14T10:51:38;11.70;;;7.78;;
6527;SDS011;64597;42.664;23.256;2023-06-14T10:54:12;10.57;;;7.38;;
6527;SDS011;64597;42.664;23.256;2023-06-14T10:56:38;11.57;;;6.85;;
6527;SDS011;64597;42.664;23.256;2023-06-14T10:59:12;10.57;;;7.18;;
6527;SDS011;64597;42.664;23.256;2023-06-14T11:01:40;10.98;;;7.40;;
6527;SDS011;64597;42.664;23.256;2023-06-14T11:11:01;11.02;;;7.30;;
6527;SDS011;64597;42.664;23.256;2023-06-14T11:13:31;13.60;;;8.30;;
6527;SDS011;64597;42.664;23.256;2023-06-14T11:15:56;12.55;;;8.27;;
6527;SDS011;64597;42.664;23.256;2023-06-14T11:18:23;10.93;;;7.10;;
6527;SDS011;64597;42.664;23.256;2023-06-14T11:20:52;10.13;;;6.30;;
6527;SDS011;64597;42.664;23.256;2023-06-14T11:23:19;8.30;;;7.22;;
6527;SDS011;64597;42.664;23.256;2023-06-14T11:25:49;18.13;;;7.32;;
6527;SDS011;64597;42.664;23.256;2023-06-14T11:28:16;11.65;;;6.60;;
6527;SDS011;64597;42.664;23.256;2023-06-14T11:30:41;7.97;;;6.38;;
6527;SDS011;64597;42.664;23.256;2023-06-14T11:33:09;11.50;;;6.25;;
6527;SDS011;64597;42.664;23.256;2023-06-14T11:38:58;11.88;;;6.78;;
6527;SDS011;64597;42.664;23.256;2023-06-14T11:41:24;9.27;;;6.57;;
6527;SDS011;64597;42.664;23.256;2023-06-14T11:43:52;12.52;;;7.30;;
6527;SDS011;64597;42.664;23.256;2023-06-14T11:46:19;8.65;;;6.40;;
6527;SDS011;64597;42.664;23.256;2023-06-14T11:48:49;7.60;;;5.93;;
6527;SDS011;64597;42.664;23.256;2023-06-14T11:51:14;9.20;;;6.03;;
6527;SDS011;64597;42.664;23.256;2023-06-14T11:53:40;8.63;;;6.53;;
6527;SDS011;64597;42.664;23.256;2023-06-14T11:56:08;8.18;;;6.22;;
6527;SDS011;64597;42.664;23.256;2023-06-14T11:58:34;10.65;;;6.22;;
6527;SDS011;64597;42.664;23.256;2023-06-14T12:00:59;10.43;;;6.65;;
6527;SDS011;64597;42.664;23.256;2023-06-14T12:03:25;10.60;;;7.43;;
6527;SDS011;64597;42.664;23.256;2023-06-14T12:06:05;11.20;;;6.32;;
6527;SDS011;64597;42.664;23.256;2023-06-14T12:08:35;10.45;;;6.00;;
6527;SDS011;64597;42.664;23.256;2023-06-14T12:11:11;7.85;;;5.85;;
6527;SDS011;64597;42.664;23.256;2023-06-14T12:13:41;8.90;;;5.38;;
6527;SDS011;64597;42.664;23.256;2023-06-14T12:16:08;7.47;;;5.80;;
6527;SDS011;64597;42.664;23.256;2023-06-14T12:18:38;6.82;;;5.32;;
6527;SDS011;64597;42.664;23.256;2023-06-14T12:21:07;7.78;;;5.40;;
6527;SDS011;64597;42.664;23.256;2023-06-14T12:23:44;6.55;;;5.43;;
6527;SDS011;64597;42.664;23.256;2023-06-14T12:26:12;7.43;;;5.30;;
6527;SDS011;64597;42.664;23.256;2023-06-14T12:31:08;7.82;;;6.00;;
6527;SDS011;64597;42.664;23.256;2023-06-14T12:33:33;6.95;;;5.32;;
6527;SDS011;64597;42.664;23.256;2023-06-14T12:35:59;6.70;;;5.05;;
6527;SDS011;64597;42.664;23.256;2023-06-14T12:38:24;6.53;;;4.32;;
6527;SDS011;64597;42.664;23.256;2023-06-14T12:40:50;6.88;;;4.75;;
6527;SDS011;64597;42.664;23.256;2023-06-14T12:43:16;6.28;;;4.68;;
6527;SDS011;64597;42.664;23.256;2023-06-14T12:45:41;6.78;;;4.65;;
6527;SDS011;64597;42.664;23.256;2023-06-14T12:48:07;6.47;;;4.50;;
6527;SDS011;64597;42.664;23.256;2023-06-14T12:50:34;5.38;;;4.28;;
6527;SDS011;64597;42.664;23.256;2023-06-14T12:53:01;8.15;;;4.50;;
6527;SDS011;64597;42.664;23.256;2023-06-14T12:55:26;5.75;;;4.53;;
6527;SDS011;64597;42.664;23.256;2023-06-14T12:57:52;8.65;;;4.85;;
6527;SDS011;64597;42.664;23.256;2023-06-14T13:00:18;6.40;;;4.80;;
6527;SDS011;64597;42.664;23.256;2023-06-14T13:02:45;6.43;;;4.70;;
6527;SDS011;64597;42.664;23.256;2023-06-14T13:05:11;6.15;;;4.65;;
6527;SDS011;64597;42.664;23.256;2023-06-14T13:07:46;6.95;;;3.85;;
6527;SDS011;64597;42.664;23.256;2023-06-14T13:10:11;7.00;;;4.85;;
6527;SDS011;64597;42.664;23.256;2023-06-14T13:12:37;6.10;;;4.63;;
6527;SDS011;64597;42.664;23.256;2023-06-14T13:15:02;4.88;;;4.30;;
6527;SDS011;64597;42.664;23.256;2023-06-14T13:17:28;6.03;;;4.32;;
6527;SDS011;64597;42.664;23.256;2023-06-14T13:19:53;5.28;;;4.25;;
6527;SDS011;64597;42.664;23.256;2023-06-14T13:22:19;5.78;;;4.03;;
6527;SDS011;64597;42.664;23.256;2023-06-14T13:24:45;5.40;;;4.45;;
6527;SDS011;64597;42.664;23.256;2023-06-14T13:27:10;5.50;;;4.65;;
6527;SDS011;64597;42.664;23.256;2023-06-14T13:29:36;5.07;;;4.45;;
6527;SDS011;64597;42.664;23.256;2023-06-14T13:32:02;4.68;;;4.13;;
6527;SDS011;64597;42.664;23.256;2023-06-14T13:34:28;5.90;;;4.20;;
6527;SDS011;64597;42.664;23.256;2023-06-14T13:36:53;6.70;;;5.00;;
6527;SDS011;64597;42.664;23.256;2023-06-14T13:39:19;6.43;;;4.32;;
6527;SDS011;64597;42.664;23.256;2023-06-14T13:41:44;9.93;;;5.88;;
6527;SDS011;64597;42.664;23.256;2023-06-14T13:44:10;7.10;;;4.55;;
6527;SDS011;64597;42.664;23.256;2023-06-14T13:46:40;5.15;;;3.65;;
6527;SDS011;64597;42.664;23.256;2023-06-14T13:49:07;6.28;;;4.38;;
6527;SDS011;64597;42.664;23.256;2023-06-14T13:51:33;4.53;;;4.05;;
6527;SDS011;64597;42.664;23.256;2023-06-14T13:54:00;6.97;;;4.85;;
6527;SDS011;64597;42.664;23.256;2023-06-14T13:56:26;6.88;;;4.55;;
6527;SDS011;64597;42.664;23.256;2023-06-14T13:58:51;7.45;;;4.28;;
6527;SDS011;64597;42.664;23.256;2023-06-14T14:01:17;8.25;;;4.60;;
6527;SDS011;64597;42.664;23.256;2023-06-14T14:03:45;5.30;;;3.80;;
6527;SDS011;64597;42.664;23.256;2023-06-14T14:06:11;5.93;;;4.65;;
6527;SDS011;64597;42.664;23.256;2023-06-14T14:08:37;7.25;;;4.22;;
6527;SDS011;64597;42.664;23.256;2023-06-14T14:11:02;6.45;;;5.03;;
6527;SDS011;64597;42.664;23.256;2023-06-14T14:13:28;7.63;;;4.93;;
6527;SDS011;64597;42.664;23.256;2023-06-14T14:15:53;7.35;;;4.95;;
6527;SDS011;64597;42.664;23.256;2023-06-14T14:18:19;7.00;;;4.70;;
6527;SDS011;64597;42.664;23.256;2023-06-14T14:20:46;7.00;;;4.97;;
6527;SDS011;64597;42.664;23.256;2023-06-14T14:23:11;7.50;;;5.60;;
6527;SDS011;64597;42.664;23.256;2023-06-14T14:25:37;8.98;;;4.78;;
6527;SDS011;64597;42.664;23.256;2023-06-14T14:28:08;6.95;;;5.13;;
6527;SDS011;64597;42.664;23.256;2023-06-14T14:30:34;8.82;;;4.47;;
6527;SDS011;64597;42.664;23.256;2023-06-14T14:33:00;7.00;;;5.00;;
6527;SDS011;64597;42.664;23.256;2023-06-14T14:35:25;6.10;;;4.78;;
6527;SDS011;64597;42.664;23.256;2023-06-14T14:37:55;8.02;;;6.25;;
6527;SDS011;64597;42.664;23.256;2023-06-14T14:40:21;8.05;;;5.47;;
6527;SDS011;64597;42.664;23.256;2023-06-14T14:42:46;8.18;;;5.22;;
6527;SDS011;64597;42.664;23.256;2023-06-14T14:45:12;6.18;;;4.88;;
6527;SDS011;64597;42.664;23.256;2023-06-14T14:47:37;7.95;;;5.50;;
6527;SDS011;64597;42.664;23.256;2023-06-14T14:50:03;6.65;;;5.13;;
6527;SDS011;64597;42.664;23.256;2023-06-14T14:52:28;7.43;;;4.78;;
6527;SDS011;64597;42.664;23.256;2023-06-14T14:54:54;8.60;;;5.20;;
6527;SDS011;64597;42.664;23.256;2023-06-14T14:57:20;9.05;;;5.53;;
6527;SDS011;64597;42.664;23.256;2023-06-14T14:59:46;7.22;;;5.18;;
6527;SDS011;64597;42.664;23.256;2023-06-14T15:02:12;7.45;;;5.45;;
6527;SDS011;64597;42.664;23.256;2023-06-14T15:04:37;8.27;;;4.43;;
6527;SDS011;64597;42.664;23.256;2023-06-14T15:07:02;9.27;;;4.85;;
6527;SDS011;64597;42.664;23.256;2023-06-14T15:09:28;9.90;;;5.07;;
6527;SDS011;64597;42.664;23.256;2023-06-14T15:11:54;6.82;;;4.88;;
6527;SDS011;64597;42.664;23.256;2023-06-14T15:14:19;7.30;;;4.65;;
6527;SDS011;64597;42.664;23.256;2023-06-14T15:16:46;7.07;;;4.80;;
6527;SDS011;64597;42.664;23.256;2023-06-14T15:19:11;7.90;;;5.05;;
6527;SDS011;64597;42.664;23.256;2023-06-14T15:21:38;8.05;;;4.00;;